createdAt,value
2019-06-01T00:01:42.716Z,12.53
2019-06-01T00:04:09.860Z,11.30
2019-06-01T00:06:37.012Z,11.30
2019-06-01T00:09:06.609Z,11.70
2019-06-01T00:11:33.760Z,11.50
2019-06-01T00:14:02.978Z,11.87
2019-06-01T00:16:30.019Z,12.10
2019-06-01T00:18:57.072Z,12.23
2019-06-01T00:21:24.124Z,11.43
2019-06-01T00:23:52.729Z,11.77
2019-06-01T00:26:20.051Z,12.80
2019-06-01T00:28:48.220Z,11.57
2019-06-01T00:31:15.384Z,11.03
2019-06-01T00:33:43.346Z,11.87
2019-06-01T00:36:10.817Z,12.13
2019-06-01T00:38:37.888Z,12.40
2019-06-01T00:41:05.048Z,11.60
2019-06-01T00:43:32.106Z,12.40
2019-06-01T00:45:59.592Z,11.50
2019-06-01T00:48:26.790Z,12.03
2019-06-01T00:50:53.929Z,12.53
2019-06-01T00:53:21.124Z,12.40
2019-06-01T00:55:49.339Z,12.27
2019-06-01T00:58:16.756Z,11.93
2019-06-01T01:00:45.682Z,12.33
2019-06-01T01:03:12.787Z,12.77
2019-06-01T01:05:39.848Z,11.73
2019-06-01T01:08:07.008Z,11.33
2019-06-01T01:10:34.192Z,11.70
2019-06-01T01:13:07.425Z,11.50
2019-06-01T01:15:34.590Z,12.40
2019-06-01T01:18:01.865Z,12.03
2019-06-01T01:20:29.020Z,12.33
2019-06-01T01:22:56.460Z,12.73
2019-06-01T01:25:23.945Z,12.07
2019-06-01T01:27:50.988Z,11.57
2019-06-01T01:30:20.310Z,12.03
2019-06-01T01:32:47.462Z,12.37
2019-06-01T01:35:14.732Z,11.90
2019-06-01T01:37:41.884Z,12.03
2019-06-01T01:40:09.841Z,12.30
2019-06-01T01:42:37.008Z,12.10
2019-06-01T01:45:05.675Z,11.83
2019-06-01T01:47:32.756Z,12.73
2019-06-01T01:49:59.804Z,11.80
2019-06-01T01:52:27.111Z,11.90
2019-06-01T01:54:54.713Z,11.40
2019-06-01T01:57:21.920Z,12.30
2019-06-01T01:59:48.983Z,11.47
2019-06-01T02:02:16.037Z,12.10
2019-06-01T02:04:43.100Z,11.93
2019-06-01T02:07:10.157Z,11.53
2019-06-01T02:09:37.200Z,12.30
2019-06-01T02:12:04.361Z,12.33
2019-06-01T02:14:31.388Z,12.20
2019-06-01T02:17:00.270Z,11.77
2019-06-01T02:19:27.610Z,13.07
2019-06-01T02:21:54.671Z,13.43
2019-06-01T02:24:21.732Z,12.67
2019-06-01T02:26:48.827Z,12.93
2019-06-01T02:29:15.953Z,12.87
2019-06-01T02:31:43.105Z,12.10
2019-06-01T02:34:10.341Z,13.20
2019-06-01T02:36:37.510Z,13.17
2019-06-01T02:39:05.928Z,12.87
2019-06-01T02:41:32.992Z,12.80
2019-06-01T02:44:01.643Z,12.40
2019-06-01T02:46:29.010Z,13.00
2019-06-01T02:48:57.375Z,13.50
2019-06-01T02:51:24.643Z,13.00
2019-06-01T02:53:51.795Z,14.57
2019-06-01T02:56:18.862Z,14.17
2019-06-01T02:58:45.899Z,13.90
2019-06-01T03:01:56.073Z,14.20
2019-06-01T03:04:12.932Z,13.60
2019-06-01T03:06:42.239Z,13.73
2019-06-01T03:09:10.295Z,14.03
2019-06-01T03:11:39.763Z,13.13
2019-06-01T03:14:09.374Z,14.57
2019-06-01T03:16:40.202Z,13.60
2019-06-01T03:19:08.079Z,13.47
2019-06-01T03:21:36.145Z,13.50
2019-06-01T03:24:08.598Z,14.67
2019-06-01T03:26:40.576Z,14.60
2019-06-01T03:29:10.139Z,13.87
2019-06-01T03:31:37.292Z,14.37
2019-06-01T03:34:06.474Z,13.90
2019-06-01T03:36:33.929Z,14.10
2019-06-01T03:39:02.113Z,14.63
2019-06-01T03:41:30.914Z,15.33
2019-06-01T03:43:57.986Z,14.50
2019-06-01T03:46:25.133Z,14.60
2019-06-01T03:48:52.206Z,14.80
2019-06-01T03:51:19.246Z,14.83
2019-06-01T03:53:46.302Z,15.67
2019-06-01T03:56:13.356Z,15.50
2019-06-01T03:58:40.417Z,15.13
2019-06-01T04:01:07.470Z,15.77
2019-06-01T04:03:34.528Z,14.53
2019-06-01T04:06:01.576Z,14.77
2019-06-01T04:08:29.052Z,14.70
2019-06-01T04:10:56.120Z,14.40
2019-06-01T04:13:23.180Z,14.60
2019-06-01T04:15:50.339Z,13.90
2019-06-01T04:18:17.401Z,14.30
2019-06-01T04:20:44.656Z,14.00
2019-06-01T04:23:12.403Z,14.43
2019-06-01T04:25:39.571Z,14.70
2019-06-01T04:28:12.583Z,14.60
2019-06-01T04:30:40.072Z,15.03
2019-06-01T04:33:07.223Z,14.43
2019-06-01T04:35:34.280Z,13.17
2019-06-01T04:38:01.352Z,13.93
2019-06-01T04:40:28.404Z,12.50
2019-06-01T04:42:55.496Z,13.00
2019-06-01T04:45:22.544Z,13.20
2019-06-01T04:47:49.604Z,12.60
2019-06-01T04:50:16.856Z,12.40
2019-06-01T04:52:44.312Z,12.20
2019-06-01T04:55:11.592Z,11.97
2019-06-01T04:57:39.844Z,11.50
2019-06-01T05:00:12.587Z,11.80
2019-06-01T05:02:36.483Z,11.77
2019-06-01T05:05:04.862Z,11.20
2019-06-01T05:07:32.065Z,11.47
2019-06-01T05:09:59.111Z,10.93
2019-06-01T05:12:26.147Z,11.30
2019-06-01T05:14:53.220Z,11.17
2019-06-01T05:17:20.268Z,10.23
2019-06-01T05:19:47.348Z,10.80
2019-06-01T05:22:14.654Z,11.03
2019-06-01T05:24:41.875Z,10.00
2019-06-01T05:27:09.048Z,9.70
2019-06-01T05:29:36.100Z,8.47
2019-06-01T05:32:03.472Z,9.13
2019-06-01T05:34:30.548Z,8.37
2019-06-01T05:36:57.656Z,8.60
2019-06-01T05:39:24.761Z,8.37
2019-06-01T05:41:51.811Z,8.17
2019-06-01T05:44:19.303Z,7.93
2019-06-01T05:46:46.944Z,8.30
2019-06-01T05:49:14.744Z,8.10
2019-06-01T05:51:42.176Z,7.87
2019-06-01T05:54:10.376Z,8.10
2019-06-01T05:56:37.705Z,8.10
2019-06-01T05:59:04.865Z,7.90
2019-06-01T06:01:31.919Z,7.57
2019-06-01T06:03:58.980Z,7.60
2019-06-01T06:06:26.027Z,8.20
2019-06-01T06:08:53.098Z,8.03
2019-06-01T06:11:21.160Z,7.90
2019-06-01T06:13:48.546Z,7.73
2019-06-01T06:16:15.775Z,7.60
2019-06-01T06:18:42.974Z,8.03
2019-06-01T06:21:10.028Z,8.20
2019-06-01T06:23:37.083Z,8.17
2019-06-01T06:26:04.146Z,7.70
2019-06-01T06:28:31.200Z,7.47
2019-06-01T06:30:58.275Z,7.63
2019-06-01T06:33:25.363Z,7.40
2019-06-01T06:35:52.429Z,7.73
2019-06-01T06:40:44.754Z,8.20
2019-06-01T06:43:21.327Z,7.77
2019-06-01T06:45:40.908Z,7.90
2019-06-01T06:48:08.068Z,7.53
2019-06-01T06:50:35.132Z,7.80
2019-06-01T06:53:02.201Z,7.47
2019-06-01T06:55:29.362Z,8.00
2019-06-01T06:57:56.415Z,7.20
2019-06-01T07:00:24.804Z,8.07
2019-06-01T07:02:52.346Z,7.37
2019-06-01T07:05:19.397Z,6.57
2019-06-01T07:07:46.451Z,6.27
2019-06-01T07:10:13.721Z,5.80
2019-06-01T07:12:40.785Z,5.80
2019-06-01T07:15:08.149Z,6.03
2019-06-01T07:17:35.188Z,5.33
2019-06-01T07:20:02.751Z,5.80
2019-06-01T07:22:29.791Z,5.37
2019-06-01T07:24:56.853Z,4.97
2019-06-01T07:27:24.169Z,5.00
2019-06-01T07:29:51.491Z,5.30
2019-06-01T07:32:18.534Z,4.90
2019-06-01T07:34:47.726Z,4.83
2019-06-01T07:37:14.790Z,4.30
2019-06-01T07:39:41.858Z,4.80
2019-06-01T07:42:09.026Z,4.10
2019-06-01T07:44:36.228Z,4.00
2019-06-01T07:47:03.381Z,3.87
2019-06-01T07:49:31.194Z,3.90
2019-06-01T07:51:58.634Z,3.87
2019-06-01T07:54:26.354Z,4.00
2019-06-01T07:56:53.535Z,3.80
2019-06-01T07:59:21.510Z,3.70
2019-06-01T08:01:49.619Z,3.73
2019-06-01T08:04:16.737Z,3.40
2019-06-01T08:06:47.003Z,3.87
2019-06-01T08:09:12.764Z,3.93
2019-06-01T08:11:39.842Z,3.90
2019-06-01T08:14:06.923Z,3.30
2019-06-01T08:16:33.984Z,3.43
2019-06-01T08:19:01.044Z,4.03
2019-06-01T08:21:28.195Z,3.30
2019-06-01T08:23:55.264Z,3.67
2019-06-01T08:26:22.604Z,3.87
2019-06-01T08:28:49.667Z,4.00
2019-06-01T08:31:16.819Z,4.03
2019-06-01T08:33:43.871Z,4.10
2019-06-01T08:36:10.931Z,3.70
2019-06-01T08:38:37.985Z,3.50
2019-06-01T08:41:05.249Z,3.80
2019-06-01T08:43:32.292Z,4.10
2019-06-01T08:45:59.361Z,3.87
2019-06-01T08:48:27.649Z,3.77
2019-06-01T08:50:54.793Z,4.00
2019-06-01T08:53:21.843Z,3.70
2019-06-01T08:55:48.910Z,4.00
2019-06-01T08:58:15.960Z,4.20
2019-06-01T09:00:43.016Z,4.40
2019-06-01T09:03:10.417Z,4.80
2019-06-01T09:05:37.489Z,4.37
2019-06-01T09:08:04.547Z,4.90
2019-06-01T09:10:31.637Z,4.33
2019-06-01T09:12:58.751Z,4.53
2019-06-01T09:15:25.793Z,3.90
2019-06-01T09:17:52.935Z,4.57
2019-06-01T09:20:20.024Z,4.30
2019-06-01T09:22:48.172Z,4.57
2019-06-01T09:25:15.640Z,4.70
2019-06-01T09:27:42.936Z,4.60
2019-06-01T09:32:42.581Z,4.43
2019-06-01T09:35:09.931Z,4.77
2019-06-01T09:37:36.987Z,5.10
2019-06-01T09:40:05.424Z,4.80
2019-06-01T09:42:33.378Z,4.50
2019-06-01T09:45:01.314Z,4.63
2019-06-01T09:47:29.051Z,4.93
2019-06-01T09:49:56.130Z,4.73
2019-06-01T09:52:23.280Z,4.40
2019-06-01T09:54:50.333Z,4.17
2019-06-01T09:57:17.495Z,4.30
2019-06-01T09:59:44.548Z,3.90
2019-06-01T10:02:11.592Z,3.87
2019-06-01T10:04:39.188Z,4.10
2019-06-01T10:07:06.244Z,3.93
2019-06-01T10:09:33.602Z,4.23
2019-06-01T10:12:00.872Z,4.70
2019-06-01T10:14:27.929Z,4.20
2019-06-01T10:16:54.992Z,4.03
2019-06-01T10:19:22.037Z,3.60
2019-06-01T10:21:49.202Z,4.30
2019-06-01T10:24:16.250Z,4.20
2019-06-01T10:26:43.308Z,4.60
2019-06-01T10:29:10.456Z,4.20
2019-06-01T10:31:41.079Z,3.80
2019-06-01T10:34:06.619Z,4.30
2019-06-01T10:36:34.038Z,3.97
2019-06-01T10:39:01.207Z,4.23
2019-06-01T10:41:28.260Z,4.80
2019-06-01T10:43:55.366Z,3.60
2019-06-01T10:46:22.439Z,3.40
2019-06-01T10:48:49.526Z,3.40
2019-06-01T10:51:16.581Z,3.73
2019-06-01T10:53:43.875Z,3.50
2019-06-01T10:56:11.400Z,3.40
2019-06-01T10:58:54.719Z,3.17
2019-06-01T11:01:07.428Z,3.43
2019-06-01T11:03:34.697Z,3.10
2019-06-01T11:06:02.144Z,3.20
2019-06-01T11:08:29.201Z,2.93
2019-06-01T11:10:56.258Z,3.23
2019-06-01T11:13:23.979Z,2.90
2019-06-01T11:15:51.053Z,3.00
2019-06-01T11:18:18.520Z,4.00
2019-06-01T11:20:45.597Z,4.00
2019-06-01T11:23:12.640Z,4.20
2019-06-01T11:25:39.733Z,4.00
2019-06-01T11:28:06.860Z,3.60
2019-06-01T11:30:34.164Z,3.10
2019-06-01T11:33:01.224Z,3.80
2019-06-01T11:35:28.280Z,3.77
2019-06-01T11:37:55.435Z,3.50
2019-06-01T11:40:22.490Z,3.27
2019-06-01T11:42:50.437Z,3.10
2019-06-01T11:45:17.580Z,2.70
2019-06-01T11:47:45.114Z,2.73
2019-06-01T11:50:13.292Z,3.13
2019-06-01T11:52:41.139Z,2.70
2019-06-01T11:55:09.233Z,3.27
2019-06-01T11:57:37.446Z,3.57
2019-06-01T12:00:06.900Z,3.10
2019-06-01T12:04:24.844Z,2.93
2019-06-01T12:06:52.016Z,3.13
2019-06-01T12:09:19.188Z,3.27
2019-06-01T12:11:46.494Z,3.17
2019-06-01T12:14:13.624Z,3.03
2019-06-01T12:16:40.692Z,3.40
2019-06-01T12:19:08.265Z,2.73
2019-06-01T12:21:36.849Z,2.90
2019-06-01T12:24:04.357Z,3.07
2019-06-01T12:26:31.408Z,3.00
2019-06-01T12:28:58.451Z,3.03
2019-06-01T12:31:25.511Z,3.00
2019-06-01T12:33:52.574Z,3.00
2019-06-01T12:36:19.736Z,2.80
2019-06-01T12:38:52.781Z,3.13
2019-06-01T12:41:21.335Z,3.10
2019-06-01T12:44:08.315Z,3.17
2019-06-01T12:46:35.951Z,3.00
2019-06-01T12:49:03.629Z,2.87
2019-06-01T12:51:30.945Z,3.00
2019-06-01T12:53:58.994Z,3.00
2019-06-01T12:56:26.178Z,2.90
2019-06-01T12:58:53.235Z,2.90
2019-06-01T13:01:20.319Z,3.23
2019-06-01T13:03:47.553Z,3.10
2019-06-01T13:06:14.744Z,2.87
2019-06-01T13:08:42.700Z,2.83
2019-06-01T13:11:10.076Z,3.07
2019-06-01T13:13:37.137Z,2.97
2019-06-01T13:16:04.192Z,2.93
2019-06-01T13:18:32.256Z,2.90
2019-06-01T13:20:59.311Z,2.53
2019-06-01T13:23:26.479Z,2.80
2019-06-01T13:25:53.535Z,2.83
2019-06-01T13:28:28.970Z,2.83
2019-06-01T13:30:51.020Z,3.03
2019-06-01T13:33:18.410Z,3.30
2019-06-01T13:35:46.577Z,2.87
2019-06-01T13:38:14.147Z,3.00
2019-06-01T13:40:41.280Z,2.80
2019-06-01T13:43:08.436Z,3.03
2019-06-01T13:45:35.492Z,3.10
2019-06-01T13:48:02.649Z,3.10
2019-06-01T13:50:29.708Z,2.70
2019-06-01T13:52:56.883Z,2.70
2019-06-01T13:55:23.939Z,2.83
2019-06-01T13:57:51.003Z,2.83
2019-06-01T14:00:29.848Z,3.10
2019-06-01T14:02:52.108Z,3.00
2019-06-01T14:05:16.557Z,3.07
2019-06-01T14:07:43.616Z,2.93
2019-06-01T14:10:11.451Z,3.00
2019-06-01T14:12:39.657Z,2.80
2019-06-01T14:15:07.126Z,2.50
2019-06-01T14:17:34.428Z,3.10
2019-06-01T14:20:01.495Z,2.70
2019-06-01T14:22:28.553Z,2.80
2019-06-01T14:25:11.853Z,2.83
2019-06-01T14:27:24.576Z,2.60
2019-06-01T14:29:52.362Z,2.70
2019-06-01T14:32:19.509Z,2.80
2019-06-01T14:34:46.556Z,2.53
2019-06-01T14:37:13.609Z,2.80
2019-06-01T14:39:41.166Z,3.20
2019-06-01T14:42:08.209Z,2.70
2019-06-01T14:44:35.267Z,3.00
2019-06-01T14:47:05.903Z,2.70
2019-06-01T14:49:31.494Z,2.70
2019-06-01T14:51:58.552Z,2.87
2019-06-01T14:54:25.604Z,2.57
2019-06-01T14:56:53.871Z,2.90
2019-06-01T14:59:20.936Z,2.90
2019-06-01T15:02:03.452Z,2.73
2019-06-01T15:04:30.488Z,2.60
2019-06-01T15:06:58.595Z,2.50
2019-06-01T15:09:25.996Z,2.57
2019-06-01T15:11:54.398Z,2.70
2019-06-01T15:14:22.020Z,3.10
2019-06-01T15:16:49.509Z,2.77
2019-06-01T15:19:17.140Z,2.80
2019-06-01T15:21:44.209Z,2.87
2019-06-01T15:24:11.265Z,2.83
2019-06-01T15:26:38.316Z,2.93
2019-06-01T15:29:05.880Z,2.63
2019-06-01T15:31:33.396Z,3.00
2019-06-01T15:34:01.850Z,3.40
2019-06-01T15:36:29.008Z,3.20
2019-06-01T15:38:56.057Z,2.90
2019-06-01T15:41:23.108Z,3.20
2019-06-01T15:43:50.895Z,2.60
2019-06-01T15:46:18.020Z,2.70
2019-06-01T15:48:45.265Z,2.90
2019-06-01T15:51:13.497Z,2.60
2019-06-01T15:53:40.544Z,3.00
2019-06-01T15:56:07.600Z,2.77
2019-06-01T15:58:34.724Z,2.60
2019-06-01T16:01:03.079Z,2.60
2019-06-01T16:03:34.064Z,3.03
2019-06-01T16:05:59.494Z,2.90
2019-06-01T16:08:26.555Z,3.07
2019-06-01T16:10:53.620Z,2.70
2019-06-01T16:13:20.693Z,2.90
2019-06-01T16:15:47.748Z,3.10
2019-06-01T16:18:14.801Z,2.90
2019-06-01T16:20:41.844Z,2.73
2019-06-01T16:23:08.904Z,2.80
2019-06-01T16:25:35.960Z,2.33
2019-06-01T16:28:03.935Z,2.73
2019-06-01T16:30:32.212Z,4.17
2019-06-01T16:33:00.621Z,3.00
2019-06-01T16:35:27.811Z,3.50
2019-06-01T16:37:55.024Z,3.00
2019-06-01T16:40:22.456Z,3.03
2019-06-01T16:42:49.575Z,3.00
2019-06-01T16:45:17.039Z,3.07
2019-06-01T16:47:44.139Z,3.00
2019-06-01T16:50:11.488Z,3.10
2019-06-01T16:52:38.892Z,2.93
2019-06-01T16:55:07.322Z,2.67
2019-06-01T16:57:34.782Z,2.60
2019-06-01T17:00:02.757Z,3.07
2019-06-01T17:02:31.932Z,3.37
2019-06-01T17:04:59.095Z,3.40
2019-06-01T17:07:26.380Z,2.90
2019-06-01T17:09:53.440Z,3.00
2019-06-01T17:12:20.705Z,3.20
2019-06-01T17:14:47.800Z,2.80
2019-06-01T17:17:14.860Z,3.27
2019-06-01T17:19:41.920Z,3.30
2019-06-01T17:22:09.084Z,2.90
2019-06-01T17:24:37.347Z,2.83
2019-06-01T17:27:04.415Z,2.90
2019-06-01T17:29:31.572Z,2.93
2019-06-01T17:32:13.460Z,3.10
2019-06-01T17:34:27.601Z,3.27
2019-06-01T17:36:54.768Z,3.20
2019-06-01T17:39:22.027Z,3.10
2019-06-01T17:41:49.084Z,3.20
2019-06-01T17:44:16.151Z,2.83
2019-06-01T17:46:53.128Z,3.00
2019-06-01T17:49:12.426Z,2.83
2019-06-01T17:51:39.871Z,3.33
2019-06-01T17:54:08.344Z,3.10
2019-06-01T17:56:35.704Z,2.93
2019-06-01T17:59:03.412Z,2.80
2019-06-01T18:01:30.544Z,3.10
2019-06-01T18:03:57.595Z,3.27
2019-06-01T18:06:24.688Z,3.17
2019-06-01T18:08:51.728Z,3.03
2019-06-01T18:11:18.788Z,3.40
2019-06-01T18:13:46.057Z,2.90
2019-06-01T18:16:13.265Z,2.97
2019-06-01T18:18:40.504Z,2.93
2019-06-01T18:21:10.307Z,3.10
2019-06-01T18:23:37.612Z,3.40
2019-06-01T18:26:05.109Z,3.80
2019-06-01T18:28:32.668Z,3.70
2019-06-01T18:30:59.823Z,3.40
2019-06-01T18:33:26.974Z,3.20
2019-06-01T18:35:54.053Z,3.83
2019-06-01T18:38:21.220Z,4.00
2019-06-01T18:40:48.521Z,3.50
2019-06-01T18:43:17.448Z,3.73
2019-06-01T18:45:45.585Z,3.77
2019-06-01T18:48:14.240Z,3.83
2019-06-01T18:50:41.638Z,3.43
2019-06-01T18:53:10.062Z,3.50
2019-06-01T18:55:38.772Z,3.80
2019-06-01T18:58:06.351Z,3.80
2019-06-01T19:00:38.526Z,3.93
2019-06-01T19:03:04.550Z,3.50
2019-06-01T19:05:31.693Z,3.70
2019-06-01T19:07:58.735Z,3.77
2019-06-01T19:10:25.887Z,4.50
2019-06-01T19:12:52.946Z,4.93
2019-06-01T19:15:28.506Z,4.20
2019-06-01T19:17:49.726Z,4.20
2019-06-01T19:20:17.069Z,3.77
2019-06-01T19:22:44.460Z,4.40
2019-06-01T19:25:13.206Z,3.97
2019-06-01T19:27:40.602Z,4.27
2019-06-01T19:30:10.851Z,4.40
2019-06-01T19:32:41.846Z,4.60
2019-06-01T19:35:09.620Z,4.43
2019-06-01T19:37:39.777Z,4.37
2019-06-01T19:40:07.158Z,4.70
2019-06-01T19:42:35.816Z,4.70
2019-06-01T19:45:04.314Z,4.73
2019-06-01T19:47:31.674Z,5.23
2019-06-01T19:49:58.744Z,5.50
2019-06-01T19:52:25.841Z,7.57
2019-06-01T19:54:53.183Z,6.97
2019-06-01T19:57:22.685Z,6.60
2019-06-01T19:59:49.285Z,6.57
2019-06-01T20:02:28.363Z,6.27
2019-06-01T20:04:45.296Z,5.27
2019-06-01T20:07:13.050Z,4.93
2019-06-01T20:09:40.421Z,5.17
2019-06-01T20:12:12.930Z,5.27
2019-06-01T20:14:37.547Z,5.03
2019-06-01T20:17:04.616Z,5.60
2019-06-01T20:19:31.933Z,5.60
2019-06-01T20:21:58.996Z,5.83
2019-06-01T20:24:26.435Z,5.70
2019-06-01T20:26:53.500Z,6.07
2019-06-01T20:29:21.718Z,5.60
2019-06-01T20:31:49.033Z,6.50
2019-06-01T20:34:16.197Z,6.47
2019-06-01T20:36:43.356Z,5.93
2019-06-01T20:39:10.420Z,5.40
2019-06-01T20:41:37.472Z,6.00
2019-06-01T20:44:04.767Z,6.23
2019-06-01T20:46:31.914Z,6.60
2019-06-01T20:48:58.980Z,5.47
2019-06-01T20:51:27.783Z,5.50
2019-06-01T20:53:55.130Z,6.20
2019-06-01T20:56:23.536Z,6.30
2019-06-01T20:58:50.965Z,7.27
2019-06-01T21:01:18.016Z,6.20
2019-06-01T21:03:45.068Z,6.60
2019-06-01T21:06:12.120Z,6.73
2019-06-01T21:08:39.182Z,6.27
2019-06-01T21:11:06.252Z,6.90
2019-06-01T21:13:33.328Z,6.40
2019-06-01T21:16:00.375Z,6.73
2019-06-01T21:18:27.444Z,6.93
2019-06-01T21:20:54.522Z,7.63
2019-06-01T21:23:22.977Z,7.67
2019-06-01T21:25:50.401Z,8.73
2019-06-01T21:28:18.529Z,9.23
2019-06-01T21:30:46.427Z,8.10
2019-06-01T21:33:13.488Z,8.40
2019-06-01T21:35:40.640Z,9.13
2019-06-01T21:38:07.716Z,7.67
2019-06-01T21:40:34.768Z,7.60
2019-06-01T21:43:20.277Z,8.37
2019-06-01T21:45:31.087Z,8.50
2019-06-01T21:47:58.164Z,8.30
2019-06-01T21:50:25.979Z,7.90
2019-06-01T21:52:53.284Z,8.37
2019-06-01T21:55:20.356Z,8.03
2019-06-01T21:57:47.508Z,8.40
2019-06-01T22:00:24.943Z,8.90
2019-06-01T22:02:53.924Z,8.30
2019-06-01T22:05:21.165Z,8.40
2019-06-01T22:07:48.215Z,8.70
2019-06-01T22:10:15.568Z,7.73
2019-06-01T22:12:42.618Z,7.60
2019-06-01T22:15:10.212Z,8.40
2019-06-01T22:17:37.277Z,9.27
2019-06-01T22:20:05.419Z,8.37
2019-06-01T22:22:32.475Z,8.70
2019-06-01T22:24:59.536Z,8.70
2019-06-01T22:27:26.599Z,7.63
2019-06-01T22:29:53.653Z,7.80
2019-06-01T22:32:24.703Z,7.73
2019-06-01T22:34:49.678Z,7.77
2019-06-01T22:37:16.733Z,8.23
2019-06-01T22:39:43.891Z,8.83
2019-06-01T22:42:10.942Z,9.10
2019-06-01T22:44:38.015Z,9.53
2019-06-01T22:47:05.080Z,9.57
2019-06-01T22:49:32.990Z,9.20
2019-06-01T22:52:00.095Z,9.53
2019-06-01T22:54:27.500Z,8.00
2019-06-01T22:56:54.549Z,8.43
2019-06-01T22:59:22.441Z,8.67
2019-06-01T23:01:49.876Z,8.50
2019-06-01T23:04:16.946Z,8.57
2019-06-01T23:06:44.008Z,8.30
2019-06-01T23:09:11.058Z,8.63
2019-06-01T23:11:38.117Z,9.70
2019-06-01T23:14:05.381Z,9.00
2019-06-01T23:16:32.480Z,9.17
2019-06-01T23:18:59.567Z,9.60
2019-06-01T23:21:27.790Z,9.07
2019-06-01T23:23:55.311Z,10.13
2019-06-01T23:26:22.471Z,10.03
2019-06-01T23:28:49.520Z,9.83
2019-06-01T23:31:16.615Z,10.20
2019-06-01T23:33:43.764Z,10.47
2019-06-01T23:36:10.812Z,9.40
2019-06-01T23:38:39.175Z,9.70
2019-06-01T23:41:06.333Z,10.73
2019-06-01T23:43:33.408Z,10.03
2019-06-01T23:46:00.467Z,9.73
2019-06-01T23:48:27.713Z,10.67
2019-06-01T23:50:54.786Z,10.30
2019-06-01T23:53:23.337Z,10.43
2019-06-01T23:55:50.640Z,10.43
2019-06-01T23:58:17.699Z,10.77
